Hectorville, Vermont
Current Conditions -  °F | °C
As of 1:15 AM on Saturday 29 Nov 2014 (Local Time) from KEFK Reporting Station
Light Snow Light Snow  
Wind Chill: 14°   Ceiling: 2600
Heat Index: 14°   Visibility: 5mi
Dew Point: 12°   Wind: 0mph
Humidity: 89%   Direction: NA
Pressure: 30.16"   Gusts: NA
Location:  44.8557°N, 72.6016°W
Report Text: KEFK 290615Z AUTO 00000KT 5SM -SN SCT020 BKN026 M10/M11 A3016 RMK AO2 T10981113
Loading
Personal Weather Stations






























Interactive Weather Map New forecast layout! Learn more

10-Day Weather Forecast

Advertisements
Track Severe Weather on mobile